Time;durP1;ratioP1;P1;durP2;ratioP2;P2;SDS_P1;SDS_P2;PMS_P1;PMS_P2;Temp;Humidity;BMP_temperature;BMP_pressure;BME280_temperature;BME280_humidity;BME280_pressure;Samples;Min_cycle;Max_cycle;Signal;HPM_P1;HPM_P2
2021/06/01 00:01:17;;;;;;;9.95;5.25;;;12.50;99.90;;;;;;5084704;28;20043;-78
2021/06/01 00:03:43;;;;;;;8.15;4.82;;;12.50;99.90;;;;;;5097921;28;20119;-80
2021/06/01 00:06:16;;;;;;;11.85;5.75;;;12.50;99.90;;;;;;5076655;28;20043;-79
2021/06/01 00:08:42;;;;;;;13.23;5.47;;;12.50;99.90;;;;;;5090005;28;20122;-79
2021/06/01 00:11:09;;;;;;;9.23;5.40;;;12.50;99.90;;;;;;5106199;28;20035;-82
2021/06/01 00:13:36;;;;;;;9.05;5.18;;;12.50;99.90;;;;;;5064514;28;20121;-78
2021/06/01 00:16:03;;;;;;;5.38;4.65;;;12.50;99.90;;;;;;5068547;28;20823;-78
2021/06/01 00:18:29;;;;;;;11.18;6.10;;;12.50;99.90;;;;;;5072889;28;20036;-77
2021/06/01 00:20:55;;;;;;;10.57;5.60;;;12.40;99.90;;;;;;5076187;28;20075;-78
2021/06/01 00:23:21;;;;;;;13.52;5.70;;;12.40;99.90;;;;;;5086508;28;20472;-80
2021/06/01 00:25:48;;;;;;;9.43;5.93;;;12.40;99.90;;;;;;5090113;28;20761;-78
2021/06/01 00:28:14;;;;;;;12.43;5.70;;;12.40;99.90;;;;;;5093509;28;20039;-79
2021/06/01 00:30:41;;;;;;;9.02;4.95;;;12.50;99.90;;;;;;5080689;28;20043;-78
2021/06/01 00:33:07;;;;;;;14.43;6.00;;;12.50;99.90;;;;;;5085795;28;20051;-78
2021/06/01 00:39:14;;;;;;;9.85;5.75;;;12.50;99.90;;;;;;5380735;22;20079;-88
2021/06/01 00:41:41;;;;;;;9.77;5.97;;;12.40;99.90;;;;;;5032497;28;20068;-88
2021/06/01 00:44:07;;;;;;;9.40;6.25;;;12.50;99.90;;;;;;5044372;28;20045;-89
2021/06/01 00:46:33;;;;;;;7.80;5.45;;;12.50;99.90;;;;;;5023984;28;20045;-89
2021/06/01 00:48:59;;;;;;;9.05;6.03;;;12.40;99.90;;;;;;5050203;28;20071;-88
2021/06/01 00:51:26;;;;;;;9.80;6.00;;;12.40;99.90;;;;;;5033438;28;20072;-88
2021/06/01 00:53:52;;;;;;;9.02;6.25;;;12.40;99.90;;;;;;5029431;28;20080;-88
2021/06/01 00:56:18;;;;;;;10.80;6.10;;;12.40;99.90;;;;;;5031290;28;20048;-87
2021/06/01 00:58:43;;;;;;;10.55;6.25;;;12.30;99.90;;;;;;5014004;28;20045;-89
2021/06/01 01:01:19;;;;;;;9.55;6.10;;;12.30;99.90;;;;;;5012866;28;20065;-88
2021/06/01 01:03:46;;;;;;;7.80;5.50;;;12.30;99.90;;;;;;5014838;28;20041;-89
2021/06/01 01:06:19;;;;;;;8.20;5.68;;;12.20;99.90;;;;;;5049608;28;20045;-87
2021/06/01 01:09:08;;;;;;;6.20;5.60;;;12.20;99.90;;;;;;5050601;28;20044;-87
2021/06/01 01:11:40;;;;;;;10.70;6.00;;;12.20;99.90;;;;;;5042585;28;20109;-87
2021/06/01 01:14:24;;;;;;;9.55;6.07;;;12.20;99.90;;;;;;5013314;28;20537;-88
2021/06/01 01:17:06;;;;;;;12.35;6.60;;;12.10;99.90;;;;;;5013531;28;20045;-91
2021/06/01 01:19:53;;;;;;;13.70;7.07;;;12.10;99.90;;;;;;5037774;28;20041;-88
2021/06/01 01:22:21;;;;;;;14.77;6.93;;;12.10;99.90;;;;;;5027399;28;20037;-88
2021/06/01 01:25:02;;;;;;;13.00;6.57;;;12.00;99.90;;;;;;5027140;28;20056;-88
2021/06/01 01:27:48;;;;;;;12.90;6.30;;;12.00;99.90;;;;;;5024982;28;20049;-88
2021/06/01 01:30:17;;;;;;;9.30;6.18;;;12.00;99.90;;;;;;5044332;28;20099;-88
2021/06/01 01:32:58;;;;;;;11.60;7.25;;;11.90;99.90;;;;;;5022179;28;20045;-88
2021/06/01 01:35:29;;;;;;;9.52;6.35;;;11.90;99.90;;;;;;5054465;28;20479;-90
2021/06/01 01:38:01;;;;;;;13.55;6.78;;;11.80;99.90;;;;;;5020360;28;20770;-88
2021/06/01 01:40:30;;;;;;;9.55;6.88;;;11.70;99.90;;;;;;5040806;28;20049;-88
2021/06/01 01:43:03;;;;;;;10.80;7.97;;;11.70;99.90;;;;;;5053810;28;20052;-88
2021/06/01 01:45:32;;;;;;;13.40;8.18;;;11.60;99.90;;;;;;5054533;28;20041;-88
2021/06/01 01:50:46;;;;;;;11.13;7.90;;;11.50;99.90;;;;;;5051108;28;20485;-88
2021/06/01 01:53:14;;;;;;;17.42;9.75;;;11.40;99.90;;;;;;5039612;28;20123;-88
2021/06/01 01:55:45;;;;;;;15.60;8.48;;;11.40;99.90;;;;;;5054266;28;20041;-88
2021/06/01 01:58:12;;;;;;;12.43;8.63;;;11.30;99.90;;;;;;5030156;28;20076;-86
2021/06/01 02:00:39;;;;;;;13.88;8.00;;;11.20;99.90;;;;;;5010657;28;20408;-87
2021/06/01 02:03:05;;;;;;;13.88;8.50;;;11.20;99.90;;;;;;5039598;28;20041;-89
2021/06/01 02:05:31;;;;;;;14.30;8.75;;;11.10;99.90;;;;;;5050944;28;20473;-86
2021/06/01 02:07:58;;;;;;;13.27;8.68;;;11.10;99.90;;;;;;5051241;28;20060;-88
2021/06/01 02:10:24;;;;;;;18.92;9.70;;;11.10;99.90;;;;;;5015896;28;20056;-89
2021/06/01 02:12:49;;;;;;;18.60;9.80;;;11.10;99.90;;;;;;4999813;28;20429;-87
2021/06/01 02:15:16;;;;;;;16.98;9.57;;;11.00;99.90;;;;;;5033097;28;20042;-87
2021/06/01 02:17:41;;;;;;;13.43;8.45;;;11.00;99.90;;;;;;5033579;28;20045;-86
2021/06/01 02:20:08;;;;;;;13.07;8.77;;;10.90;99.90;;;;;;5034053;28;20143;-86
2021/06/01 02:25:31;;;;;;;15.98;9.68;;;10.80;99.90;;;;;;5053428;28;20528;-86
2021/06/01 02:28:11;;;;;;;11.50;8.85;;;10.80;99.90;;;;;;5040466;28;20042;-90
2021/06/01 02:31:03;;;;;;;14.25;9.07;;;10.70;99.90;;;;;;5034198;28;20041;-87
2021/06/01 02:33:36;;;;;;;16.80;8.93;;;10.70;99.90;;;;;;5015847;28;20052;-88
2021/06/01 02:36:03;;;;;;;12.45;8.88;;;10.60;99.90;;;;;;5033301;28;20042;-87
2021/06/01 02:38:31;;;;;;;18.00;10.27;;;10.60;99.90;;;;;;5032162;28;20077;-86
2021/06/01 02:41:00;;;;;;;17.77;9.55;;;10.60;99.90;;;;;;5047972;28;20049;-90
2021/06/01 02:43:26;;;;;;;21.90;11.15;;;10.60;99.90;;;;;;5053180;28;20473;-87
2021/06/01 02:45:53;;;;;;;13.88;8.95;;;10.60;99.90;;;;;;5053284;28;20041;-87
2021/06/01 02:48:20;;;;;;;15.88;9.65;;;10.60;99.90;;;;;;5034996;28;20041;-87
2021/06/01 02:50:52;;;;;;;22.20;10.25;;;10.60;99.90;;;;;;5035658;28;20047;-87
2021/06/01 02:53:21;;;;;;;15.23;10.38;;;10.60;99.90;;;;;;5034967;28;20124;-88
2021/06/01 02:55:48;;;;;;;15.57;10.32;;;10.50;99.90;;;;;;5033001;28;20044;-87
2021/06/01 02:58:14;;;;;;;14.45;10.68;;;10.50;99.90;;;;;;5032001;28;20068;-88
2021/06/01 03:00:42;;;;;;;21.17;11.00;;;10.50;99.90;;;;;;5032586;28;20041;-87
2021/06/01 03:03:11;;;;;;;17.70;11.57;;;10.50;99.90;;;;;;5014709;28;20053;-88
2021/06/01 03:05:37;;;;;;;25.60;12.18;;;10.50;99.90;;;;;;5032863;28;20044;-87
2021/06/01 03:08:30;;;;;;;20.85;10.65;;;10.50;99.90;;;;;;5042752;28;20447;-87
2021/06/01 03:11:03;;;;;;;14.77;11.15;;;10.50;99.90;;;;;;5030584;28;20071;-90
2021/06/01 03:13:29;;;;;;;19.08;11.60;;;10.50;99.90;;;;;;5052668;28;20047;-87
2021/06/01 03:15:55;;;;;;;19.92;11.40;;;10.40;99.90;;;;;;5052253;28;20489;-89
2021/06/01 03:18:21;;;;;;;25.48;12.23;;;10.40;99.90;;;;;;5021672;28;20041;-87
2021/06/01 03:20:48;;;;;;;21.77;13.35;;;10.30;99.90;;;;;;5014949;28;20120;-88
2021/06/01 03:23:15;;;;;;;19.10;12.75;;;10.30;99.90;;;;;;5032045;28;20045;-87
2021/06/01 03:25:41;;;;;;;18.17;11.80;;;10.30;99.90;;;;;;5014918;28;20061;-88
2021/06/01 03:28:07;;;;;;;24.30;12.60;;;10.20;99.90;;;;;;5004887;28;20041;-87
2021/06/01 03:30:34;;;;;;;23.23;12.57;;;10.20;99.90;;;;;;5051837;28;20119;-87
2021/06/01 03:33:01;;;;;;;23.33;12.23;;;10.20;99.90;;;;;;5034106;28;20049;-91
2021/06/01 03:35:26;;;;;;;22.80;12.27;;;10.20;99.90;;;;;;5052480;28;20045;-87
2021/06/01 03:37:53;;;;;;;19.00;11.63;;;10.10;99.90;;;;;;5034466;28;20061;-87
2021/06/01 03:40:20;;;;;;;22.60;12.27;;;10.10;99.90;;;;;;5051303;28;20546;-89
2021/06/01 03:42:46;;;;;;;20.75;11.52;;;10.10;99.90;;;;;;5017650;28;20120;-88
2021/06/01 03:45:13;;;;;;;25.40;12.27;;;10.10;99.90;;;;;;5016876;28;20044;-88
2021/06/01 03:47:40;;;;;;;22.02;12.88;;;10.10;99.90;;;;;;5051107;28;20092;-89
2021/06/01 03:50:07;;;;;;;21.92;12.60;;;10.10;99.90;;;;;;5033468;28;20121;-88
2021/06/01 03:52:33;;;;;;;22.65;11.45;;;10.10;99.90;;;;;;5029047;28;20049;-88
2021/06/01 03:54:59;;;;;;;16.40;11.10;;;10.00;99.90;;;;;;5031222;28;20052;-91
2021/06/01 03:57:25;;;;;;;19.90;11.85;;;10.00;99.90;;;;;;5031502;28;20092;-89
2021/06/01 03:59:50;;;;;;;20.65;12.15;;;10.00;99.90;;;;;;5031904;28;20053;-87
2021/06/01 04:02:16;;;;;;;24.95;13.02;;;10.00;99.90;;;;;;4981655;28;20641;-88
2021/06/01 04:04:42;;;;;;;21.35;12.48;;;10.00;99.90;;;;;;5031739;28;20414;-88
2021/06/01 04:07:09;;;;;;;23.35;13.80;;;10.00;99.90;;;;;;4996945;28;20128;-89
2021/06/01 04:09:35;;;;;;;29.08;13.15;;;10.00;99.90;;;;;;5031193;28;20041;-88
2021/06/01 04:12:01;;;;;;;27.00;13.18;;;10.00;99.90;;;;;;4996343;28;20053;-90
2021/06/01 04:14:28;;;;;;;27.30;13.50;;;10.10;99.90;;;;;;4996006;28;20063;-88
2021/06/01 04:16:55;;;;;;;23.33;13.45;;;10.10;99.90;;;;;;5013658;28;20049;-88
2021/06/01 04:19:21;;;;;;;28.48;14.55;;;10.10;99.90;;;;;;5049438;28;20124;-88
2021/06/01 04:21:47;;;;;;;30.00;15.98;;;10.20;99.90;;;;;;5050037;28;20128;-89
2021/06/01 04:24:13;;;;;;;26.08;13.30;;;10.20;99.90;;;;;;5031971;28;20052;-87
2021/06/01 04:26:39;;;;;;;24.48;15.02;;;10.20;99.90;;;;;;5032412;28;20055;-88
2021/06/01 04:29:05;;;;;;;23.60;14.23;;;10.30;99.90;;;;;;5015230;28;20045;-92
2021/06/01 04:31:31;;;;;;;28.65;14.77;;;10.30;99.90;;;;;;5030495;28;20072;-89
2021/06/01 04:33:57;;;;;;;36.85;16.52;;;10.30;99.90;;;;;;5030072;28;20038;-87
2021/06/01 04:36:25;;;;;;;26.15;15.13;;;10.30;99.90;;;;;;4995814;28;20111;-89
2021/06/01 04:38:52;;;;;;;27.58;16.38;;;10.40;99.90;;;;;;5012933;28;20081;-87
2021/06/01 04:41:18;;;;;;;28.20;15.35;;;10.50;99.90;;;;;;5045510;28;20094;-87
2021/06/01 04:43:43;;;;;;;29.98;17.65;;;10.60;99.90;;;;;;5050718;28;20045;-87
2021/06/01 04:46:10;;;;;;;32.03;18.50;;;10.60;99.90;;;;;;5049972;28;20462;-87
2021/06/01 04:48:36;;;;;;;38.53;18.63;;;10.70;99.90;;;;;;5050204;28;20045;-87
2021/06/01 04:51:02;;;;;;;33.05;17.48;;;10.80;99.90;;;;;;5050484;28;20033;-87
2021/06/01 04:53:28;;;;;;;33.55;17.98;;;10.90;99.90;;;;;;5049434;28;20049;-88
2021/06/01 04:55:54;;;;;;;31.42;17.50;;;11.00;99.90;;;;;;5016110;28;20045;-87
2021/06/01 04:58:20;;;;;;;32.97;16.45;;;11.10;99.90;;;;;;5049134;28;20067;-88
2021/06/01 05:00:46;;;;;;;32.88;18.50;;;11.30;99.90;;;;;;5050198;28;20554;-88
2021/06/01 05:03:11;;;;;;;28.13;17.27;;;11.40;99.90;;;;;;5050042;28;20053;-88
2021/06/01 05:05:37;;;;;;;41.25;20.23;;;11.50;99.90;;;;;;5036761;28;20989;-88
2021/06/01 05:08:03;;;;;;;30.75;16.83;;;11.50;99.90;;;;;;5054365;28;20049;-87
2021/06/01 05:10:29;;;;;;;35.65;18.27;;;11.60;99.90;;;;;;5036619;28;20123;-87
2021/06/01 05:12:55;;;;;;;33.80;16.70;;;11.80;99.90;;;;;;5033540;28;20145;-88
2021/06/01 05:15:21;;;;;;;34.83;18.35;;;11.90;99.90;;;;;;5016633;28;20128;-87
2021/06/01 05:17:47;;;;;;;37.25;18.15;;;11.90;99.90;;;;;;5017029;28;20041;-86
2021/06/01 05:20:13;;;;;;;29.63;17.67;;;12.00;99.90;;;;;;5034123;28;20103;-87
2021/06/01 05:22:39;;;;;;;33.75;18.67;;;12.00;99.90;;;;;;5018153;28;20049;-87
2021/06/01 05:25:05;;;;;;;35.80;19.27;;;12.00;99.90;;;;;;5054714;28;20128;-89
2021/06/01 05:27:31;;;;;;;36.40;18.08;;;12.10;99.90;;;;;;5052742;28;20037;-88
2021/06/01 05:30:03;;;;;;;32.53;16.42;;;12.10;99.90;;;;;;5035504;28;20051;-90
2021/06/01 05:35:16;;;;;;;30.55;16.13;;;12.30;99.90;;;;;;5041530;28;20120;-88
2021/06/01 05:37:42;;;;;;;30.13;16.52;;;12.40;99.90;;;;;;5053412;28;20037;-88
2021/06/01 05:40:08;;;;;;;25.88;16.77;;;12.50;99.90;;;;;;5052730;28;20068;-91
2021/06/01 05:42:34;;;;;;;34.35;17.30;;;12.50;99.90;;;;;;5035674;28;20037;-88
2021/06/01 05:45:01;;;;;;;30.85;15.88;;;12.50;99.90;;;;;;5020640;28;20124;-89
2021/06/01 05:47:27;;;;;;;26.52;16.08;;;12.60;99.90;;;;;;5039063;28;20041;-87
2021/06/01 05:49:53;;;;;;;23.38;14.98;;;12.60;99.90;;;;;;5054189;28;20551;-87
2021/06/01 05:52:19;;;;;;;27.85;15.35;;;12.70;99.90;;;;;;5018152;28;20049;-89
2021/06/01 05:54:44;;;;;;;26.77;14.00;;;12.70;99.90;;;;;;5037059;28;20045;-91
2021/06/01 05:57:10;;;;;;;23.20;14.80;;;12.70;99.90;;;;;;5020071;28;20458;-93
2021/06/01 05:59:36;;;;;;;20.30;14.02;;;12.80;99.90;;;;;;5052085;28;20044;-90
2021/06/01 06:02:02;;;;;;;22.05;14.35;;;12.80;99.90;;;;;;5011979;28;20041;-90
2021/06/01 06:04:28;;;;;;;23.50;14.32;;;12.90;99.90;;;;;;5005557;28;20049;-89
2021/06/01 06:06:57;;;;;;;19.35;12.95;;;13.00;99.90;;;;;;5006401;28;20041;-90
2021/06/01 06:09:23;;;;;;;21.83;14.52;;;13.00;99.90;;;;;;5030392;28;20029;-90
2021/06/01 06:11:48;;;;;;;21.50;14.98;;;13.10;99.90;;;;;;5038545;28;20038;-89
2021/06/01 06:14:14;;;;;;;26.83;14.98;;;13.20;99.90;;;;;;5033037;28;20044;-91
2021/06/01 06:16:46;;;;;;;25.13;14.23;;;13.20;99.90;;;;;;5016440;28;20049;-91
2021/06/01 06:19:12;;;;;;;22.35;15.70;;;13.30;99.90;;;;;;5033450;28;20045;-91
2021/06/01 06:21:37;;;;;;;25.30;14.18;;;13.40;99.90;;;;;;5024760;28;20492;-90
2021/06/01 06:24:04;;;;;;;21.35;14.38;;;13.40;99.90;;;;;;5035388;28;20076;-90
2021/06/01 06:26:31;;;;;;;20.70;14.25;;;13.50;99.90;;;;;;5018629;28;20052;-90
2021/06/01 06:28:57;;;;;;;22.58;13.48;;;13.50;99.90;;;;;;5024060;28;20041;-91
2021/06/01 06:31:22;;;;;;;29.98;14.30;;;13.50;99.90;;;;;;5033736;28;20377;-91
2021/06/01 06:33:48;;;;;;;28.40;14.38;;;13.60;99.90;;;;;;5047233;28;20091;-90
2021/06/01 06:36:14;;;;;;;20.05;14.20;;;13.70;99.90;;;;;;5034761;28;20045;-90
2021/06/01 06:38:42;;;;;;;23.48;13.63;;;13.70;99.90;;;;;;5053204;28;20049;-91
2021/06/01 06:41:13;;;;;;;23.60;13.57;;;13.80;99.90;;;;;;5036030;28;20634;-91
2021/06/01 06:43:48;;;;;;;22.30;13.35;;;13.80;99.90;;;;;;5024978;28;20175;-90
2021/06/01 06:46:23;;;;;;;18.90;12.98;;;13.90;99.90;;;;;;5018216;28;20046;-93
2021/06/01 06:48:51;;;;;;;23.00;12.27;;;13.90;99.90;;;;;;5019313;28;20055;-90
2021/06/01 06:51:18;;;;;;;18.80;12.75;;;14.00;99.90;;;;;;5053146;28;20051;-91
2021/06/01 06:53:53;;;;;;;16.27;12.45;;;14.10;99.90;;;;;;5031884;28;20107;-89
2021/06/01 06:56:21;;;;;;;16.85;11.82;;;14.20;99.90;;;;;;5031715;28;20053;-89
2021/06/01 06:58:48;;;;;;;19.98;11.80;;;14.30;99.90;;;;;;5033168;28;20398;-90
2021/06/01 07:01:14;;;;;;;19.40;12.18;;;14.40;99.90;;;;;;5035682;28;20488;-94
2021/06/01 07:03:39;;;;;;;19.38;11.75;;;14.50;99.90;;;;;;5052764;28;20072;-89
2021/06/01 07:06:06;;;;;;;19.85;11.35;;;14.50;99.90;;;;;;5026771;28;20053;-89
2021/06/01 07:08:32;;;;;;;18.38;10.43;;;14.50;99.90;;;;;;5011053;28;20052;-91
2021/06/01 07:11:08;;;;;;;16.50;10.45;;;14.60;99.90;;;;;;5036799;28;20072;-91
2021/06/01 07:13:44;;;;;;;14.35;9.15;;;14.70;99.90;;;;;;5052109;28;20029;-91
2021/06/01 07:16:11;;;;;;;11.18;8.75;;;14.90;99.90;;;;;;5035503;28;20128;-91
2021/06/01 07:18:41;;;;;;;15.13;8.55;;;15.00;99.90;;;;;;5052559;28;20041;-90
2021/06/01 07:21:09;;;;;;;10.23;7.57;;;15.10;99.90;;;;;;5035380;28;20051;-91
2021/06/01 07:23:48;;;;;;;14.95;9.32;;;15.20;99.90;;;;;;5020608;28;20046;-92
2021/06/01 07:26:16;;;;;;;13.70;9.20;;;15.30;99.90;;;;;;5032377;28;20045;-93
2021/06/01 07:29:03;;;;;;;18.52;9.88;;;15.30;99.90;;;;;;5004134;28;20089;-91
2021/06/01 07:31:51;;;;;;;13.25;9.30;;;15.40;99.90;;;;;;4992087;28;20449;-93
2021/06/01 07:34:18;;;;;;;18.50;10.07;;;15.50;99.90;;;;;;5052035;28;20048;-93
2021/06/01 07:37:04;;;;;;;16.70;9.18;;;15.60;99.90;;;;;;5037595;28;20067;-92
2021/06/01 07:39:32;;;;;;;12.63;9.52;;;15.70;99.90;;;;;;5051941;28;20064;-91
2021/06/01 07:41:58;;;;;;;11.80;8.43;;;15.70;99.90;;;;;;5052408;28;20049;-92
2021/06/01 07:44:25;;;;;;;13.85;9.02;;;15.80;99.90;;;;;;4999853;28;20389;-95
2021/06/01 07:46:51;;;;;;;14.55;8.60;;;15.90;99.90;;;;;;5015817;28;20095;-93
2021/06/01 07:49:17;;;;;;;11.52;8.15;;;16.00;99.90;;;;;;5032042;28;20050;-92
2021/06/01 07:51:44;;;;;;;13.32;7.97;;;16.10;99.90;;;;;;5014566;28;20486;-93
2021/06/01 07:54:10;;;;;;;13.25;8.48;;;16.20;99.90;;;;;;5032690;28;20038;-93
2021/06/01 07:56:37;;;;;;;10.98;5.47;;;16.30;99.90;;;;;;5032386;28;20053;-94
2021/06/01 07:59:23;;;;;;;6.93;5.78;;;16.40;99.90;;;;;;5013841;28;20500;-94
2021/06/01 08:01:52;;;;;;;11.15;7.47;;;16.60;99.90;;;;;;5020278;28;20049;-94
2021/06/01 08:04:18;;;;;;;9.82;6.03;;;16.70;99.90;;;;;;5026312;28;20735;-93
2021/06/01 08:06:44;;;;;;;8.52;5.43;;;16.90;99.90;;;;;;5033320;28;20048;-94
2021/06/01 08:09:10;;;;;;;9.85;5.07;;;17.00;99.90;;;;;;5039854;28;20045;-94
2021/06/01 08:11:36;;;;;;;8.88;5.25;;;17.10;99.90;;;;;;5012998;28;20114;-95
2021/06/01 08:14:04;;;;;;;10.25;5.88;;;17.20;99.90;;;;;;5029917;28;20045;-92
2021/06/01 08:16:40;;;;;;;7.78;5.63;;;17.30;99.90;;;;;;5013846;28;20368;-95
2021/06/01 08:19:14;;;;;;;8.90;5.75;;;17.40;99.90;;;;;;5031208;28;20068;-94
2021/06/01 08:22:02;;;;;;;7.65;5.38;;;17.50;99.90;;;;;;5013767;28;20037;-93
2021/06/01 08:24:30;;;;;;;9.88;6.03;;;17.60;99.90;;;;;;5021149;28;20037;-93
2021/06/01 08:26:57;;;;;;;8.05;4.70;;;17.60;99.90;;;;;;4997383;28;20045;-93
2021/06/01 08:29:23;;;;;;;9.23;5.38;;;17.70;99.90;;;;;;4979900;28;20175;-93
2021/06/01 08:31:49;;;;;;;8.90;5.22;;;17.80;99.90;;;;;;5030541;28;20045;-94
2021/06/01 08:34:15;;;;;;;8.07;3.30;;;17.80;99.90;;;;;;5025762;28;20041;-94
2021/06/01 08:36:41;;;;;;;9.68;4.45;;;18.00;99.90;;;;;;5049638;28;20064;-94
2021/06/01 08:39:08;;;;;;;11.57;4.60;;;18.10;99.90;;;;;;5050136;28;20091;-93
2021/06/01 08:41:35;;;;;;;4.50;4.10;;;18.20;99.90;;;;;;5049560;28;20099;-93
2021/06/01 08:44:04;;;;;;;5.68;4.05;;;18.30;99.90;;;;;;5007247;28;20057;-92
2021/06/01 08:46:31;;;;;;;5.72;4.25;;;18.40;99.90;;;;;;4995565;28;20047;-93
2021/06/01 08:48:57;;;;;;;3.47;3.03;;;18.40;99.90;;;;;;5012554;28;20503;-94
2021/06/01 08:51:25;;;;;;;4.40;3.00;;;18.50;99.90;;;;;;4995908;28;20124;-89
2021/06/01 08:53:54;;;;;;;5.10;3.05;;;18.60;99.90;;;;;;5029547;28;20048;-92
2021/06/01 08:56:20;;;;;;;7.32;2.70;;;18.70;99.90;;;;;;5037933;28;20053;-91
2021/06/01 08:58:50;;;;;;;7.30;3.15;;;18.90;99.90;;;;;;5031697;28;20546;-92
2021/06/01 09:01:20;;;;;;;3.38;2.58;;;18.90;99.90;;;;;;5015832;28;20069;-92
2021/06/01 09:03:50;;;;;;;;;;;19.00;99.90;;;;;;5015737;28;20049;-93
2021/06/01 09:14:28;;;;;;;2.47;2.20;;;19.40;99.90;;;;;;5029702;28;20046;-91
2021/06/01 09:22:37;;;;;;;6.57;2.08;;;19.70;99.90;;;;;;5005157;28;20489;-92
2021/06/01 09:25:16;;;;;;;2.85;1.80;;;19.80;99.90;;;;;;5029445;28;20053;-92
2021/06/01 09:27:48;;;;;;;3.97;1.60;;;19.90;99.90;;;;;;5029093;28;20129;-93
2021/06/01 09:30:36;;;;;;;2.67;2.00;;;20.00;99.90;;;;;;5029640;28;20401;-93
2021/06/01 09:33:05;;;;;;;1.73;1.63;;;20.20;99.90;;;;;;5011941;28;20041;-91
2021/06/01 09:35:48;;;;;;;5.63;1.48;;;20.30;99.90;;;;;;5025378;28;20060;-92
2021/06/01 09:38:15;;;;;;;4.40;1.67;;;20.40;99.90;;;;;;5030979;28;20449;-92
2021/06/01 09:40:42;;;;;;;3.47;2.00;;;20.50;99.90;;;;;;5047948;28;20048;-93
2021/06/01 09:43:10;;;;;;;5.55;1.85;;;20.60;99.90;;;;;;5030889;28;20064;-91
2021/06/01 09:45:36;;;;;;;2.38;1.75;;;20.60;99.90;;;;;;5018061;28;20103;-92
2021/06/01 09:48:06;;;;;;;3.08;2.05;;;20.70;99.90;;;;;;5029221;28;20041;-92
2021/06/01 09:51:08;;;;;;;6.18;1.77;;;20.80;99.90;;;;;;4996465;28;20500;-93
2021/06/01 09:53:35;;;;;;;2.67;1.70;;;20.80;99.90;;;;;;5032013;28;20045;-93
2021/06/01 09:56:03;;;;;;;2.25;1.77;;;21.00;99.90;;;;;;4996559;28;20052;-93
2021/06/01 09:58:34;;;;;;;3.85;1.85;;;21.10;99.80;;;;;;5017747;28;20049;-92
2021/06/01 10:01:03;;;;;;;1.85;1.60;;;21.20;99.90;;;;;;5034499;28;20110;-93
2021/06/01 10:03:44;;;;;;;2.77;1.60;;;21.20;99.90;;;;;;5051716;28;20095;-91
2021/06/01 10:06:10;;;;;;;1.75;1.65;;;21.20;99.90;;;;;;5034720;28;20124;-94
2021/06/01 10:08:52;;;;;;;4.40;1.67;;;21.30;99.90;;;;;;5052152;28;20528;-93
2021/06/01 10:11:18;;;;;;;5.07;1.70;;;21.40;99.90;;;;;;5050280;28;20049;-91
2021/06/01 10:13:44;;;;;;;3.15;1.58;;;21.50;99.90;;;;;;5001605;28;20045;-93
2021/06/01 10:16:14;;;;;;;4.55;2.10;;;21.60;99.90;;;;;;5034866;28;20037;-94
2021/06/01 10:18:41;;;;;;;3.45;1.70;;;21.70;99.90;;;;;;5034101;28;20132;-94
2021/06/01 10:21:13;;;;;;;3.65;1.60;;;21.70;99.90;;;;;;5052965;28;20033;-94
2021/06/01 10:23:41;;;;;;;3.10;1.85;;;21.80;99.90;;;;;;5033970;28;20071;-94
2021/06/01 10:26:09;;;;;;;7.53;1.80;;;21.70;98.50;;;;;;5039062;28;20052;-93
2021/06/01 10:28:39;;;;;;;6.32;1.75;;;21.80;96.70;;;;;;5014053;28;20120;-94
2021/06/01 10:31:08;;;;;;;4.63;1.85;;;21.80;96.70;;;;;;5014604;28;20049;-93
2021/06/01 10:33:55;;;;;;;2.33;1.45;;;21.70;99.90;;;;;;5031776;28;20529;-95
2021/06/01 10:50:23;;;;;;;1.88;1.65;;;22.00;95.60;;;;;;5050873;28;20405;-93
2021/06/01 10:53:05;;;;;;;3.70;1.60;;;22.00;96.30;;;;;;5032671;28;20056;-93
2021/06/01 10:55:50;;;;;;;6.22;1.70;;;22.00;96.00;;;;;;5039891;28;20123;-89
2021/06/01 10:58:23;;;;;;;2.00;1.65;;;21.90;97.30;;;;;;5013682;28;20049;-92
2021/06/01 11:03:19;;;;;;;5.05;1.35;;;22.00;97.00;;;;;;5012884;28;20482;-92
2021/06/01 11:05:54;;;;;;;3.33;2.28;;;22.00;99.90;;;;;;5006156;28;20045;-94
2021/06/01 11:08:33;;;;;;;3.47;1.95;;;22.10;97.70;;;;;;5041452;28;20493;-92
2021/06/01 11:10:59;;;;;;;2.08;1.58;;;22.20;98.40;;;;;;5025024;28;20097;-93
2021/06/01 11:13:24;;;;;;;2.60;1.77;;;22.20;97.80;;;;;;5027294;28;20049;-92
2021/06/01 11:15:59;;;;;;;4.75;1.60;;;22.30;99.90;;;;;;5023347;28;20041;-93
2021/06/01 11:18:35;;;;;;;2.03;1.70;;;22.40;98.60;;;;;;5022800;28;20041;-91
2021/06/01 11:21:07;;;;;;;8.05;1.60;;;22.50;99.90;;;;;;5030142;28;20045;-91
2021/06/01 11:32:53;;;;;;;2.20;1.60;;;22.70;95.40;;;;;;5050018;28;20040;-91
2021/06/01 11:35:31;;;;;;;3.38;1.77;;;22.70;97.80;;;;;;5037494;28;20095;-93
2021/06/01 11:43:05;;;;;;;2.53;1.63;;;22.70;95.90;;;;;;5049781;28;20056;-92
2021/06/01 11:45:57;;;;;;;5.65;2.35;;;22.60;92.30;;;;;;5049586;28;20044;-93
2021/06/01 11:51:21;;;;;;;7.03;2.10;;;22.60;98.60;;;;;;5049496;28;20103;-92
2021/06/01 11:53:50;;;;;;;2.97;1.98;;;22.80;97.50;;;;;;5049883;28;20068;-92
2021/06/01 11:56:32;;;;;;;2.20;1.70;;;22.90;98.00;;;;;;5034472;28;20417;-93
2021/06/01 12:18:39;;;;;;;2.42;1.70;;;23.80;92.60;;;;;;5015509;28;20050;-91
2021/06/01 12:21:25;;;;;;;3.67;1.75;;;24.00;93.90;;;;;;4996523;28;20046;-92
2021/06/01 12:24:16;;;;;;;3.22;1.67;;;24.10;96.90;;;;;;5029362;28;20077;-91
2021/06/01 12:32:11;;;;;;;1.73;1.42;;;25.30;88.90;;;;;;5029950;28;20049;-93
2021/06/01 13:37:11;;;;;;;6.90;2.55;;;23.50;99.90;;;;;;5032535;28;20069;-93
2021/06/01 13:39:43;;;;;;;9.82;3.10;;;23.80;99.90;;;;;;5032428;28;20168;-92
2021/06/01 13:51:11;;;;;;;5.45;2.58;;;23.50;99.90;;;;;;4990629;28;20133;-94
2021/06/01 13:56:07;;;;;;;7.00;2.80;;;23.90;99.20;;;;;;5032081;28;20076;-93
2021/06/01 14:01:21;;;;;;;6.18;3.03;;;23.70;99.90;;;;;;5031660;28;20252;-92
2021/06/01 14:09:48;;;;;;;4.90;2.47;;;24.40;98.80;;;;;;5050342;28;20068;-93
2021/06/01 14:21:05;;;;;;;8.85;1.90;;;26.40;90.40;;;;;;5024919;28;20125;-93
2021/06/01 14:40:18;;;;;;;1.70;1.60;;;30.40;71.70;;;;;;5041805;28;20063;-94
2021/06/01 15:31:47;;;;;;;3.97;2.00;;;33.00;48.10;;;;;;5038287;28;20057;-90
2021/06/01 15:48:41;;;;;;;2.53;1.70;;;27.30;58.30;;;;;;5015475;28;20397;-92
2021/06/01 16:13:49;;;;;;;9.68;1.98;;;27.50;58.90;;;;;;5050314;28;20467;-93
2021/06/01 16:44:03;;;;;;;4.00;1.60;;;29.50;59.30;;;;;;5050296;28;20037;-95
2021/06/01 17:05:22;;;;;;;6.93;2.13;;;32.90;52.80;;;;;;5038801;28;20136;-93
2021/06/01 17:13:06;;;;;;;15.27;1.83;;;32.40;49.70;;;;;;5039447;28;20115;-94
2021/06/01 17:15:33;;;;;;;4.57;1.92;;;32.00;51.00;;;;;;5037094;28;20048;-93
2021/06/01 17:18:09;;;;;;;3.65;2.40;;;32.10;52.50;;;;;;5053529;28;20044;-93
2021/06/01 17:36:53;;;;;;;8.10;2.13;;;32.10;48.00;;;;;;5030276;28;20045;-93
2021/06/01 17:39:20;;;;;;;3.35;1.80;;;31.60;49.60;;;;;;4995990;28;20696;-94
2021/06/01 17:41:51;;;;;;;5.72;2.15;;;31.00;50.70;;;;;;5029236;28;20068;-93
2021/06/01 17:44:22;;;;;;;4.32;2.30;;;30.80;50.70;;;;;;5031828;28;20464;-92
2021/06/01 17:46:49;;;;;;;3.38;2.05;;;30.20;51.70;;;;;;5044276;28;20068;-94
2021/06/01 17:49:21;;;;;;;3.85;2.40;;;29.70;53.40;;;;;;5029534;28;20120;-93
2021/06/01 17:51:54;;;;;;;7.50;2.10;;;29.40;53.40;;;;;;5016037;28;20045;-95
2021/06/01 17:54:34;;;;;;;7.43;3.15;;;29.10;55.20;;;;;;5017287;28;20124;-94
2021/06/01 17:57:02;;;;;;;9.38;2.40;;;29.00;55.70;;;;;;5053360;28;20045;-94
2021/06/01 17:59:28;;;;;;;4.68;2.67;;;28.50;55.90;;;;;;5052944;28;20091;-96
2021/06/01 18:01:55;;;;;;;5.43;2.63;;;28.30;56.30;;;;;;5035681;28;20072;-96
2021/06/01 18:04:26;;;;;;;5.30;2.40;;;28.00;57.00;;;;;;5015589;28;20067;-94
2021/06/01 18:06:55;;;;;;;3.58;2.58;;;27.70;59.10;;;;;;5015482;28;20075;-91
2021/06/01 18:37:31;;;;;;;2.97;2.17;;;26.40;61.30;;;;;;5052063;28;20041;-93
2021/06/01 19:02:17;;;;;;;2.30;1.83;;;24.40;65.30;;;;;;4955500;28;20055;-91
2021/06/01 19:44:20;;;;;;;7.63;2.70;;;20.70;89.20;;;;;;5041673;28;20049;-92
2021/06/01 19:52:21;;;;;;;3.97;2.03;;;20.20;91.40;;;;;;5038017;28;20083;-94
2021/06/01 19:54:49;;;;;;;6.78;2.50;;;20.00;92.40;;;;;;5019277;28;20056;-92
2021/06/01 19:57:17;;;;;;;3.25;2.30;;;19.80;93.30;;;;;;5018866;28;20041;-93
2021/06/01 19:59:44;;;;;;;4.82;2.67;;;19.60;94.30;;;;;;5021088;28;20102;-94
2021/06/01 20:02:20;;;;;;;2.97;2.47;;;19.50;95.10;;;;;;5029216;28;20069;-94
2021/06/01 20:04:52;;;;;;;2.67;2.25;;;19.40;95.50;;;;;;5029383;28;20098;-92
2021/06/01 20:07:20;;;;;;;2.85;2.30;;;19.10;96.00;;;;;;5028402;28;20044;-92
2021/06/01 20:09:46;;;;;;;2.25;1.90;;;19.10;96.70;;;;;;4995309;28;20045;-93
2021/06/01 20:12:12;;;;;;;4.75;3.00;;;19.00;97.60;;;;;;4979933;28;20493;-92